Time;durP1;ratioP1;P1;durP2;ratioP2;P2;SDS_P1;SDS_P2;PMS_P1;PMS_P2;Temp;Humidity;BMP_temperature;BMP_pressure;BME280_temperature;BME280_humidity;BME280_pressure;Samples;Min_cycle;Max_cycle;Signal;HPM_P1;HPM_P2
2022/08/17 00:19:43;;;;;;;37.53;32.80;;;;;;;;;;6234074;23;20070;-88
2022/08/17 00:40:44;;;;;;;40.58;34.30;;;;;;;;;;6165371;23;20012;-86
2022/08/17 02:19:13;;;;;;;46.22;34.42;;;;;;;;;;6222435;22;20098;-87
2022/08/17 02:32:24;;;;;;;55.47;37.92;;;;;;;;;;6219344;23;20180;-86
2022/08/17 02:34:50;;;;;;;47.55;39.13;;;;;;;;;;6220801;23;20125;-86
2022/08/17 03:03:48;;;;;;;53.90;40.33;;;;;;;;;;6262333;22;20030;-87
2022/08/17 03:06:15;;;;;;;48.95;39.50;;;;;;;;;;6133398;23;20025;-85
2022/08/17 03:08:41;;;;;;;57.78;42.95;;;;;;;;;;6106964;23;20022;-85
2022/08/17 03:11:07;;;;;;;61.17;44.83;;;;;;;;;;6131290;23;20014;-85
2022/08/17 03:13:33;;;;;;;57.47;43.17;;;;;;;;;;6132147;23;20017;-85
2022/08/17 03:16:06;;;;;;;58.78;42.88;;;;;;;;;;6106592;23;20021;-84
2022/08/17 03:18:32;;;;;;;50.63;40.28;;;;;;;;;;6130432;23;20022;-85
2022/08/17 03:20:59;;;;;;;58.28;41.50;;;;;;;;;;6128301;23;20018;-85
2022/08/17 03:23:39;;;;;;;45.28;39.88;;;;;;;;;;6130992;23;20025;-84
2022/08/17 03:26:06;;;;;;;55.17;43.05;;;;;;;;;;6127029;23;20055;-83
2022/08/17 03:28:33;;;;;;;55.95;42.90;;;;;;;;;;6130651;23;20022;-85
2022/08/17 03:30:59;;;;;;;53.85;43.72;;;;;;;;;;6155341;23;20022;-84
2022/08/17 03:33:25;;;;;;;56.88;42.40;;;;;;;;;;6082308;23;20022;-84
2022/08/17 03:35:51;;;;;;;59.53;45.25;;;;;;;;;;6129179;23;20025;-85
2022/08/17 03:38:20;;;;;;;55.97;42.40;;;;;;;;;;6155526;23;20064;-86
2022/08/17 03:40:47;;;;;;;54.70;41.60;;;;;;;;;;6130560;23;20032;-84
2022/08/17 03:43:14;;;;;;;53.38;40.13;;;;;;;;;;6154570;23;20033;-85
2022/08/17 03:57:12;;;;;;;57.53;42.92;;;;;;;;;;6129425;23;20477;-84
2022/08/17 03:59:39;;;;;;;58.47;43.38;;;;;;;;;;6107305;23;20112;-85
2022/08/17 04:02:24;;;;;;;51.55;41.58;;;;;;;;;;6154512;23;20021;-85
2022/08/17 04:04:54;;;;;;;56.83;42.00;;;;;;;;;;6102729;23;20018;-87
2022/08/17 04:07:26;;;;;;;56.05;41.28;;;;;;;;;;6090155;23;20023;-87
2022/08/17 04:09:52;;;;;;;49.20;39.47;;;;;;;;;;6043137;23;20090;-84
2022/08/17 04:12:19;;;;;;;50.47;40.60;;;;;;;;;;6086372;23;20057;-83
2022/08/17 04:15:05;;;;;;;51.15;40.90;;;;;;;;;;6067625;23;20063;-83
2022/08/17 04:20:32;;;;;;;50.45;39.97;;;;;;;;;;6039174;23;20027;-84
2022/08/17 04:23:04;;;;;;;48.92;40.45;;;;;;;;;;6065496;23;20022;-84
2022/08/17 04:25:41;;;;;;;49.50;41.85;;;;;;;;;;6061342;23;20053;-84
2022/08/17 04:28:08;;;;;;;48.80;41.83;;;;;;;;;;6064323;23;20464;-83
2022/08/17 04:30:53;;;;;;;56.60;43.95;;;;;;;;;;6061227;23;20019;-84
2022/08/17 04:33:26;;;;;;;56.60;44.08;;;;;;;;;;6087893;23;20083;-83
2022/08/17 04:35:54;;;;;;;69.18;45.38;;;;;;;;;;6060541;23;20029;-85
2022/08/17 04:38:23;;;;;;;50.38;41.90;;;;;;;;;;6109132;23;20025;-84
2022/08/17 04:43:57;;;;;;;53.25;40.15;;;;;;;;;;6101093;23;20080;-85
2022/08/17 04:49:52;;;;;;;62.95;44.28;;;;;;;;;;6118208;23;20052;-84
2022/08/17 04:52:44;;;;;;;57.70;42.67;;;;;;;;;;6077362;23;20180;-86
2022/08/17 04:55:10;;;;;;;58.22;44.05;;;;;;;;;;6098046;23;20026;-86
2022/08/17 04:57:37;;;;;;;58.58;41.72;;;;;;;;;;6102026;23;20069;-84
2022/08/17 05:00:05;;;;;;;58.70;43.05;;;;;;;;;;6098892;23;20018;-84
2022/08/17 05:02:31;;;;;;;53.25;43.40;;;;;;;;;;6127599;23;20032;-85
2022/08/17 05:05:01;;;;;;;57.65;43.45;;;;;;;;;;6102935;23;20536;-84
2022/08/17 05:10:35;;;;;;;53.70;44.10;;;;;;;;;;6133373;23;20021;-86
2022/08/17 05:13:20;;;;;;;57.42;44.03;;;;;;;;;;6108829;23;20475;-86
2022/08/17 05:15:48;;;;;;;56.17;42.13;;;;;;;;;;6156976;23;20017;-87
2022/08/17 05:18:16;;;;;;;58.65;42.72;;;;;;;;;;6106591;23;20037;-86
2022/08/17 05:20:42;;;;;;;53.42;41.72;;;;;;;;;;6157607;23;20029;-87
2022/08/17 05:23:12;;;;;;;53.55;42.13;;;;;;;;;;6129236;23;20097;-85
2022/08/17 05:25:40;;;;;;;53.47;44.40;;;;;;;;;;6131370;23;20017;-86
2022/08/17 05:28:10;;;;;;;59.70;44.72;;;;;;;;;;6156207;23;20097;-85
2022/08/17 05:30:49;;;;;;;51.88;42.50;;;;;;;;;;6130509;23;20018;-85
2022/08/17 05:33:20;;;;;;;66.10;47.22;;;;;;;;;;6128587;23;20416;-86
2022/08/17 05:35:47;;;;;;;56.55;44.20;;;;;;;;;;6107084;23;20526;-87
2022/08/17 05:38:15;;;;;;;57.97;46.70;;;;;;;;;;6105616;23;20026;-86
2022/08/17 05:40:54;;;;;;;56.40;45.50;;;;;;;;;;6130002;23;20025;-87
2022/08/17 05:43:29;;;;;;;56.78;45.92;;;;;;;;;;6105138;23;20021;-88
2022/08/17 05:45:55;;;;;;;57.10;45.13;;;;;;;;;;6078263;23;20017;-86
2022/08/17 05:48:21;;;;;;;63.10;49.22;;;;;;;;;;6129661;23;20017;-85
2022/08/17 05:50:50;;;;;;;59.85;47.53;;;;;;;;;;6102467;23;20351;-87
2022/08/17 05:53:38;;;;;;;63.72;49.13;;;;;;;;;;6129465;23;20017;-85
2022/08/17 05:56:27;;;;;;;65.20;49.20;;;;;;;;;;6101103;23;20080;-86
2022/08/17 05:59:02;;;;;;;55.90;45.88;;;;;;;;;;6011870;23;20019;-87
2022/08/17 06:01:44;;;;;;;53.47;45.60;;;;;;;;;;6096258;23;20032;-86
2022/08/17 06:04:36;;;;;;;64.78;49.03;;;;;;;;;;6101324;23;20548;-85
2022/08/17 06:07:10;;;;;;;71.95;55.22;;;;;;;;;;6103999;23;20025;-85
2022/08/17 06:09:46;;;;;;;64.10;52.13;;;;;;;;;;6127024;23;20025;-85
2022/08/17 06:15:54;;;;;;;75.13;56.50;;;;;;;;;;6093515;23;20027;-85
2022/08/17 06:18:43;;;;;;;67.97;56.47;;;;;;;;;;6048722;23;20057;-87
2022/08/17 06:21:45;;;;;;;74.47;61.65;;;;;;;;;;6099127;23;20018;-86
2022/08/17 06:24:19;;;;;;;80.00;60.88;;;;;;;;;;6070303;23;20449;-86
2022/08/17 06:27:34;;;;;;;78.70;58.85;;;;;;;;;;6135013;23;20017;-88
2022/08/17 06:30:17;;;;;;;71.57;58.38;;;;;;;;;;6071792;23;20395;-86
2022/08/17 06:33:09;;;;;;;73.95;57.42;;;;;;;;;;6119219;23;20110;-88
2022/08/17 06:38:22;;;;;;;79.15;58.80;;;;;;;;;;6243414;22;20059;-87
2022/08/17 06:41:01;;;;;;;69.82;57.58;;;;;;;;;;6197681;23;20091;-85
2022/08/17 06:47:03;;;;;;;72.25;55.80;;;;;;;;;;6222146;23;20024;-84
2022/08/17 06:49:50;;;;;;;74.82;57.92;;;;;;;;;;6247444;23;20020;-84
2022/08/17 06:52:27;;;;;;;75.78;55.78;;;;;;;;;;6196750;23;20035;-86
2022/08/17 06:55:13;;;;;;;78.53;54.42;;;;;;;;;;6196380;23;20070;-84
2022/08/17 06:58:10;;;;;;;;;;;;;;;;;;;;;
2022/08/17 07:00:42;;;;;;;88.28;53.13;;;;;;;;;;6217319;23;20024;-86
2022/08/17 07:03:09;;;;;;;90.10;52.58;;;;;;;;;;6193588;23;20068;-84
2022/08/17 07:06:13;;;;;;;102.53;56.97;;;20.70;99.90;;;;;;6195568;22;20016;-84
2022/08/17 07:08:58;;;;;;;89.07;50.80;;;;;;;;;;6195883;23;20251;-84
2022/08/17 07:11:54;;;;;;;95.72;53.35;;;;;;;;;;6198118;23;20362;-85
2022/08/17 07:14:35;;;;;;;93.68;52.00;;;;;;;;;;6117010;23;20081;-85
2022/08/17 07:17:09;;;;;;;95.75;50.80;;;;;;;;;;6248775;23;20458;-86
2022/08/17 07:19:37;;;;;;;89.78;48.30;;;;;;;;;;6222109;23;20400;-84
2022/08/17 07:22:29;;;;;;;100.97;50.38;;;;;;;;;;6198056;23;20047;-86
2022/08/17 07:24:57;;;;;;;96.03;50.83;;;;;;;;;;6199106;23;20026;-82
2022/08/17 07:27:26;;;;;;;94.57;50.92;;;;;;;;;;6251260;23;20091;-85
2022/08/17 07:30:16;;;;;;;98.68;49.83;;;;;;;;;;6223554;23;20016;-85
2022/08/17 07:33:07;;;;;;;98.63;51.28;;;;;;;;;;6223011;23;20109;-83
2022/08/17 07:35:41;;;;;;;108.35;54.95;;;;;;;;;;6251364;23;20162;-83
2022/08/17 07:38:30;;;;;;;100.47;53.28;;;;;;;;;;6198615;23;20099;-83
2022/08/17 07:40:56;;;;;;;121.75;55.88;;;;;;;;;;6197360;23;20088;-82
2022/08/17 07:43:26;;;;;;;101.63;51.60;;;;;;;;;;6195453;23;20022;-84
2022/08/17 07:49:12;;;;;;;93.20;48.25;;;;;;;;;;6248050;23;20078;-84
2022/08/17 07:51:54;;;;;;;97.03;48.75;;;;;;;;;;6220216;23;20026;-84
2022/08/17 07:54:39;;;;;;;100.13;49.53;;;;;;;;;;6184901;23;20021;-83
2022/08/17 07:57:08;;;;;;;93.88;47.60;;;;;;;;;;6155611;23;20072;-84
2022/08/17 07:59:38;;;;;;;96.22;48.70;;;;;;;;;;6181255;23;20025;-84
2022/08/17 08:02:15;;;;;;;97.38;49.55;;;;;;;;;;6182133;23;20060;-83
2022/08/17 08:04:48;;;;;;;85.60;44.80;;;;;;;;;;6177651;23;20079;-85
2022/08/17 08:08:00;;;;;;;90.90;48.42;;;;;;;;;;6077432;23;20040;-83
2022/08/17 08:10:42;;;;;;;102.65;49.85;;;;;;;;;;6158565;23;20489;-81
2022/08/17 08:13:21;;;;;;;99.13;49.53;;;;;;;;;;6183047;23;20195;-82
2022/08/17 08:16:09;;;;;;;87.03;48.08;;;;;;;;;;6183301;23;20016;-84
2022/08/17 08:18:48;;;;;;;97.85;51.40;;;;;;;;;;6112989;23;20021;-83
2022/08/17 08:21:48;;;;;;;98.97;51.13;;;;;;;;;;6129897;23;20346;-82
2022/08/17 08:24:33;;;;;;;114.60;54.58;;;;;;;;;;6156496;23;20121;-81
2022/08/17 08:27:08;;;;;;;120.35;56.00;;;;;;;;;;6214187;23;20024;-81
2022/08/17 08:29:38;;;;;;;110.38;53.95;;;;;;;;;;6241395;23;20024;-81
2022/08/17 08:32:28;;;;;;;107.63;55.05;;;;;;;;;;6243252;23;20020;-83
2022/08/17 08:35:02;;;;;;;113.03;58.28;;;;;;;;;;6218218;23;20016;-85
2022/08/17 08:37:34;;;;;;;116.55;59.78;;;;;;;;;;6195676;23;20067;-84
2022/08/17 08:40:00;;;;;;;116.68;61.00;;;;;;;;;;6195575;23;20609;-85
2022/08/17 08:42:49;;;;;;;128.45;67.40;;;;;;;;;;6198002;23;20024;-84
2022/08/17 08:45:19;;;;;;;138.10;67.22;;;;;;;;;;6229906;23;20096;-84
2022/08/17 08:48:01;;;;;;;134.25;63.45;;;;;;;;;;6196584;23;20099;-82
2022/08/17 08:50:45;;;;;;;139.45;68.40;;;;;;;;;;6220668;23;20095;-82
2022/08/17 08:53:11;;;;;;;;;;;;;;;;;;6247656;23;20067;-83
2022/08/17 09:31:02;;;;;;;81.57;61.53;;;;;;;;;;6259579;22;20058;-89
2022/08/17 09:33:31;;;;;;;89.00;67.53;;;;;;;;;;6216818;23;20072;-89
2022/08/17 10:02:24;;;;;;;39.13;33.38;;;;;;;;;;6223510;22;20082;-84
2022/08/17 10:14:53;;;;;;;;;;;;;;;;;;6259604;23;20015;-88
2022/08/17 10:17:49;;;;;;;31.02;27.75;;;;;;;;;;6232314;23;19973;-89
2022/08/17 10:20:39;;;;;;;35.78;30.80;;;;;;;;;;6233395;23;20026;-89
2022/08/17 10:29:57;;;;;;;58.20;47.53;;;;;;;;;;6237682;22;20353;-84
2022/08/17 10:35:45;;;;;;;59.60;47.45;;;;;;;;;;6251373;23;20024;-85
2022/08/17 10:38:21;;;;;;;51.00;43.15;;;;;;;;;;6192211;23;20035;-87
2022/08/17 10:40:47;;;;;;;49.00;42.03;;;;;;;;;;6165484;23;20043;-88
2022/08/17 10:43:47;;;;;;;50.88;41.63;;;;;;;;;;6162338;23;20021;-87
2022/08/17 11:04:17;;;;;;;35.60;28.90;;;;;;;;;;6141619;22;20317;-89
2022/08/17 11:14:22;;;;;;;28.05;24.92;;;;;;;;;;6226384;23;20019;-88
2022/08/17 11:17:05;;;;;;;27.63;24.65;;;;;;;;;;6169875;23;20103;-87
2022/08/17 11:19:46;;;;;;;33.38;25.38;;;;;;;;;;6171615;23;20095;-91
2022/08/17 11:22:46;;;;;;;24.08;21.60;;;;;;;;;;6222362;23;20102;-90
2022/08/17 11:29:08;;;;;;;;;;;;;;;;;;;;;
2022/08/17 12:15:47;;;;;;;21.33;17.10;;;;;;;;;;6218960;23;20020;-92
2022/08/17 12:18:40;;;;;;;20.83;16.73;;;;;;;;;;6212698;23;20016;-87
2022/08/17 12:24:18;;;;;;;23.42;15.98;;;;;;;;;;6253843;22;20601;-91
2022/08/17 12:29:36;;;;;;;20.95;18.30;;;;;;;;;;6222423;22;20028;-87
2022/08/17 12:32:06;;;;;;;20.50;17.55;;;;;;;;;;6223203;23;20017;-93
2022/08/17 12:34:49;;;;;;;22.95;17.98;;;;;;;;;;6221172;23;20090;-92
2022/08/17 12:37:31;;;;;;;22.17;16.70;;;;;;;;;;6192161;23;20031;-91
2022/08/17 12:40:32;;;;;;;21.58;16.42;;;;;;;;;;6221866;23;20020;-91
2022/08/17 12:43:17;;;;;;;20.52;16.00;;;;;;;;;;6193758;23;20028;-87
2022/08/17 12:46:17;;;;;;;20.83;15.75;;;;;;;;;;6194674;23;20016;-91
2022/08/17 12:49:02;;;;;;;23.67;17.02;;;;;;;;;;6168558;23;20028;-91
2022/08/17 12:52:00;;;;;;;21.70;16.98;;;;;;;;;;6196345;23;20020;-87
2022/08/17 12:54:45;;;;;;;22.75;16.90;;;;;;;;;;6175757;23;20106;-89
2022/08/17 12:57:43;;;;;;;19.33;16.65;;;;;;;;;;6223860;23;20101;-87
2022/08/17 13:00:24;;;;;;;18.27;15.13;;;;;;;;;;6224630;23;20020;-90
2022/08/17 13:02:59;;;;;;;21.90;15.75;;;;;;;;;;6252104;23;20032;-91
2022/08/17 13:11:41;;;;;;;19.92;16.95;;;;;;;;;;6248983;22;20028;-90
2022/08/17 13:14:10;;;;;;;22.25;17.33;;;;;;;;;;6222938;23;20047;-89
2022/08/17 13:29:44;;;;;;;21.83;16.15;;;;;;;;;;6223725;23;20427;-90
2022/08/17 13:32:34;;;;;;;25.83;16.30;;;;;;;;;;6199752;23;20027;-89
2022/08/17 13:35:35;;;;;;;20.80;15.73;;;;;;;;;;6198501;23;20020;-90
2022/08/17 13:54:24;;;;;;;22.38;15.40;;;;;;;;;;6207277;23;20024;-88
2022/08/17 14:04:13;;;;;;;19.55;13.40;;;;;;;;;;6012063;23;20132;-88
2022/08/17 14:07:18;;;;;;;18.02;13.25;;;;;;;;;;6037082;23;20030;-87
2022/08/17 14:10:05;;;;;;;16.10;12.48;;;;;;;;;;6011513;23;20023;-89
2022/08/17 14:15:41;;;;;;;13.70;12.07;;;;;;;;;;6012562;23;20023;-86
2022/08/17 14:22:08;;;;;;;16.80;13.32;;;;;;;;;;6247934;22;20055;-87
2022/08/17 14:28:07;;;;;;;20.20;12.40;;;23.10;99.90;;;;;;6258175;22;20480;-88
2022/08/17 14:31:12;;;;;;;18.63;12.00;;;;;;;;;;6209126;23;20023;-88
2022/08/17 14:53:15;;;;;;;17.02;12.40;;;22.20;99.90;;;;;;6201647;22;20035;-88
2022/08/17 15:08:31;;;;;;;23.00;14.77;;;;;;;;;;6219540;23;20072;-88
2022/08/17 15:39:17;;;;;;;21.13;14.45;;;;;;;;;;6244619;23;20217;-88
2022/08/17 15:51:34;;;;;;;17.15;12.23;;;;;;;;;;6228590;22;20046;-88
2022/08/17 16:00:47;;;;;;;18.73;12.43;;;;;;;;;;6165153;23;20052;-87
2022/08/17 16:07:16;;;;;;;17.08;11.70;;;;;;;;;;6220855;23;20337;-87
2022/08/17 16:09:45;;;;;;;16.30;11.45;;;;;;;;;;6222783;23;20056;-85
2022/08/17 16:12:21;;;;;;;12.93;9.43;;;;;;;;;;6191077;22;20024;-86
2022/08/17 16:14:52;;;;;;;16.17;9.10;;;;;;;;;;6224896;23;20021;-87
2022/08/17 16:17:53;;;;;;;20.75;9.35;;;;;;;;;;6225063;23;20027;-86
2022/08/17 16:20:19;;;;;;;17.20;9.32;;;;;;;;;;6194175;23;20020;-86
2022/08/17 16:23:11;;;;;;;18.38;8.90;;;;;;;;;;6194548;23;20031;-86
2022/08/17 16:25:38;;;;;;;17.13;8.45;;;;;;;;;;6157744;23;20017;-85
2022/08/17 16:28:20;;;;;;;16.73;8.70;;;;;;;;;;6132443;23;20022;-86
2022/08/17 16:30:52;;;;;;;15.50;9.13;;;;;;;;;;6153812;23;20033;-85
2022/08/17 16:33:18;;;;;;;17.70;9.52;;;;;;;;;;6131634;23;20022;-84
2022/08/17 16:35:44;;;;;;;25.42;9.88;;;;;;;;;;6106226;23;20374;-85
2022/08/17 16:40:44;;;;;;;30.80;5.10;;;;;;;;;;6210220;23;20408;-78
2022/08/17 16:43:11;;;;;;;35.25;9.20;;;;;;;;;;6180577;23;20468;-78
2022/08/17 16:45:39;;;;;;;66.43;6.65;;;;;;;;;;6181023;23;20456;-79
2022/08/17 16:48:06;;;;;;;62.22;7.22;;;;;;;;;;6208245;23;20027;-76
2022/08/17 16:50:32;;;;;;;62.83;8.30;;;;;;;;;;6179677;23;20024;-77
2022/08/17 16:53:09;;;;;;;76.03;9.23;;;;;;;;;;6159100;23;20038;-77
2022/08/17 16:55:36;;;;;;;63.13;7.68;;;;;;;;;;6178756;23;20515;-76
2022/08/17 16:58:03;;;;;;;74.35;8.55;;;;;;;;;;6181513;23;20025;-77
2022/08/17 17:00:29;;;;;;;63.65;8.35;;;;;;;;;;6180281;23;20480;-77
2022/08/17 17:02:55;;;;;;;51.13;8.25;;;;;;;;;;6179972;23;20309;-78
2022/08/17 17:05:40;;;;;;;51.03;8.80;;;;;;;;;;6207884;23;20095;-80
2022/08/17 17:08:11;;;;;;;51.38;8.48;;;;;;;;;;6154274;23;20031;-81
2022/08/17 17:10:47;;;;;;;67.22;10.20;;;;;;;;;;6156023;23;20024;-80
2022/08/17 17:13:20;;;;;;;64.75;9.45;;;;;;;;;;6204308;23;20040;-79
2022/08/17 17:15:53;;;;;;;41.17;7.57;;;;;;;;;;6181272;23;20031;-82
2022/08/17 17:18:22;;;;;;;44.88;7.25;;;;;;;;;;6206522;23;20047;-82
2022/08/17 17:21:05;;;;;;;50.20;8.10;;;;;;;;;;6154642;23;20027;-79
2022/08/17 17:23:40;;;;;;;48.45;8.25;;;;;;;;;;6207070;23;20012;-81
2022/08/17 17:26:26;;;;;;;44.80;7.53;;;;;;;;;;6203582;23;20126;-82
2022/08/17 17:29:00;;;;;;;21.80;5.63;;;;;;;;;;6180600;23;20021;-81
2022/08/17 17:31:37;;;;;;;26.55;6.47;;;;;;;;;;6152301;23;20020;-83
2022/08/17 17:34:06;;;;;;;33.45;6.82;;;;;;;;;;6206130;23;20020;-81
2022/08/17 17:36:36;;;;;;;26.98;5.95;;;;;;;;;;6178761;23;20024;-81
2022/08/17 17:39:08;;;;;;;22.80;5.82;;;;;;;;;;6204295;23;20024;-81
2022/08/17 17:41:48;;;;;;;23.50;5.68;;;;;;;;;;6172795;23;20013;-83
2022/08/17 17:44:17;;;;;;;34.83;5.57;;;;;;;;;;6145215;23;20063;-83
2022/08/17 17:47:11;;;;;;;17.05;4.20;;;;;;;;;;6172581;23;20028;-82
2022/08/17 17:49:38;;;;;;;15.35;4.10;;;;;;;;;;6145551;23;20536;-81
2022/08/17 17:52:07;;;;;;;7.28;3.00;;;;;;;;;;6173745;23;20021;-80
2022/08/17 17:55:01;;;;;;;7.63;3.17;;;;;;;;;;6170385;23;20084;-81
2022/08/17 17:57:55;;;;;;;11.83;3.57;;;;;;;;;;6173628;23;20025;-80
2022/08/17 18:00:26;;;;;;;14.48;3.63;;;;;;;;;;6174948;23;20017;-81
2022/08/17 18:03:19;;;;;;;28.40;7.63;;;;;;;;;;6171661;23;20410;-80
2022/08/17 18:06:16;;;;;;;28.63;9.23;;;;;;;;;;6174467;23;20083;-82
2022/08/17 18:09:00;;;;;;;22.77;9.38;;;;;;;;;;6179385;23;20017;-81
2022/08/17 18:11:46;;;;;;;33.03;12.68;;;;;;;;;;6161134;23;20056;-82
2022/08/17 18:14:25;;;;;;;43.95;14.75;;;;;;;;;;6194459;23;20023;-81
2022/08/17 18:16:56;;;;;;;33.92;14.98;;;;;;;;;;6218203;23;20020;-80
2022/08/17 18:19:24;;;;;;;30.27;16.95;;;;;;;;;;6212454;23;20354;-81
2022/08/17 18:22:15;;;;;;;24.42;15.70;;;;;;;;;;6155134;23;20024;-80
2022/08/17 18:24:43;;;;;;;24.77;15.27;;;;;;;;;;6181544;23;20017;-82
2022/08/17 18:27:18;;;;;;;22.88;16.70;;;;;;;;;;6208949;23;20017;-81
2022/08/17 18:29:45;;;;;;;21.70;15.80;;;;;;;;;;6178534;23;20032;-83
2022/08/17 18:32:31;;;;;;;19.10;14.38;;;;;;;;;;6208110;23;20461;-82
2022/08/17 18:34:59;;;;;;;15.82;12.32;;;;;;;;;;6205941;23;20428;-81
2022/08/17 18:37:52;;;;;;;18.52;10.50;;;;;;;;;;6206327;23;20017;-83
2022/08/17 18:40:22;;;;;;;16.60;9.88;;;;;;;;;;6204331;23;20027;-81
2022/08/17 18:42:48;;;;;;;10.98;8.60;;;;;;;;;;6204798;23;20411;-81
2022/08/17 18:45:32;;;;;;;7.82;6.70;;;;;;;;;;6206795;23;20020;-81
2022/08/17 18:47:58;;;;;;;10.20;7.07;;;;;;;;;;6153609;23;20110;-81
2022/08/17 18:50:41;;;;;;;12.98;7.70;;;;;;;;;;6180159;23;20020;-80
2022/08/17 18:53:45;;;;;;;12.40;7.97;;;;;;;;;;6177143;23;20453;-81
2022/08/17 18:56:35;;;;;;;12.43;8.27;;;;;;;;;;6203463;23;20025;-80
2022/08/17 18:59:04;;;;;;;9.27;6.15;;;;;;;;;;6206103;23;20261;-82
2022/08/17 19:01:56;;;;;;;15.45;5.85;;;;;;;;;;6177360;23;20450;-82
2022/08/17 19:04:45;;;;;;;14.77;5.25;;;;;;;;;;6181091;23;20055;-82
2022/08/17 19:07:32;;;;;;;15.20;6.10;;;;;;;;;;6175679;23;20155;-79
2022/08/17 19:10:08;;;;;;;20.23;6.85;;;;;;;;;;6177144;23;20660;-80
2022/08/17 19:12:38;;;;;;;16.05;5.90;;;;;;;;;;6207213;23;20025;-81
2022/08/17 19:15:08;;;;;;;22.48;7.05;;;;;;;;;;6204392;23;20021;-79
2022/08/17 19:17:54;;;;;;;24.40;7.05;;;;;;;;;;6180553;23;20353;-79
2022/08/17 19:20:37;;;;;;;22.73;8.15;;;;;;;;;;6178503;23;20024;-78
2022/08/17 19:23:22;;;;;;;31.35;9.98;;;;;;;;;;6206936;23;20021;-78
2022/08/17 19:25:50;;;;;;;30.23;7.88;;;;;;;;;;6178913;23;20077;-77
2022/08/17 19:28:21;;;;;;;15.27;5.80;;;;;;;;;;6205841;23;20098;-80
2022/08/17 19:30:48;;;;;;;23.83;6.78;;;;;;;;;;6180552;23;20446;-81
2022/08/17 19:33:14;;;;;;;27.65;6.03;;;;;;;;;;6204819;23;20063;-79
2022/08/17 19:36:07;;;;;;;21.55;5.85;;;;;;;;;;6206854;23;20042;-78
2022/08/17 19:38:40;;;;;;;18.25;5.22;;;;;;;;;;6197642;23;20070;-80
2022/08/17 19:41:12;;;;;;;18.70;5.93;;;;;;;;;;6180178;23;20024;-79
2022/08/17 19:43:57;;;;;;;22.88;6.55;;;;;;;;;;6204865;23;20028;-80
2022/08/17 19:46:24;;;;;;;25.10;7.43;;;;;;;;;;6204104;23;20520;-78
2022/08/17 19:48:50;;;;;;;16.85;7.18;;;;;;;;;;6207105;23;20378;-78
2022/08/17 19:51:18;;;;;;;25.63;6.93;;;;;;;;;;6176983;23;20052;-77
2022/08/17 19:53:56;;;;;;;20.23;6.28;;;;;;;;;;6206518;23;20753;-81
2022/08/17 19:56:36;;;;;;;16.35;6.38;;;;;;;;;;6178266;23;20024;-77
2022/08/17 19:59:13;;;;;;;26.50;7.55;;;;;;;;;;6206547;23;20031;-78
2022/08/17 20:01:50;;;;;;;24.13;7.05;;;;;;;;;;6178333;23;20062;-80
2022/08/17 20:04:28;;;;;;;26.85;7.18;;;;;;;;;;6203690;23;20100;-77
2022/08/17 20:07:00;;;;;;;21.73;6.93;;;;;;;;;;6207157;23;20021;-79
2022/08/17 20:09:33;;;;;;;17.65;6.55;;;;;;;;;;6176938;23;20028;-81
2022/08/17 20:12:09;;;;;;;16.77;5.75;;;;;;;;;;6178975;23;20016;-78
2022/08/17 20:14:43;;;;;;;16.65;5.75;;;;;;;;;;6176884;23;20028;-79
2022/08/17 20:17:17;;;;;;;22.15;5.00;;;;;;;;;;6205629;23;20763;-77
2022/08/17 20:20:02;;;;;;;12.73;4.28;;;;;;;;;;6204637;23;20017;-79
2022/08/17 20:22:39;;;;;;;15.00;3.97;;;;;;;;;;6202160;23;20024;-79
2022/08/17 20:25:07;;;;;;;14.75;4.68;;;;;;;;;;6205498;23;20032;-79
2022/08/17 20:27:35;;;;;;;10.45;3.78;;;;;;;;;;6203557;23;20021;-81
2022/08/17 20:30:11;;;;;;;9.48;3.38;;;;;;;;;;6205614;23;20445;-80
2022/08/17 20:32:57;;;;;;;12.88;3.65;;;;;;;;;;6205387;23;20343;-83
2022/08/17 20:35:39;;;;;;;17.08;4.40;;;;;;;;;;6180595;23;20032;-81
2022/08/17 20:38:12;;;;;;;20.85;5.20;;;;;;;;;;6179787;23;20020;-80
2022/08/17 20:40:38;;;;;;;12.43;4.13;;;;;;;;;;6205104;23;20021;-83
2022/08/17 20:43:22;;;;;;;17.08;4.60;;;;;;;;;;6207365;23;20244;-83
2022/08/17 20:46:03;;;;;;;15.77;4.10;;;;;;;;;;6206554;23;20020;-85
2022/08/17 20:48:34;;;;;;;21.02;5.28;;;;;;;;;;6206937;23;20020;-82
2022/08/17 20:51:20;;;;;;;21.45;4.80;;;;;;;;;;6178391;23;20090;-81
2022/08/17 20:53:46;;;;;;;25.48;4.97;;;;;;;;;;6207680;23;20016;-82
2022/08/17 20:56:32;;;;;;;22.55;5.28;;;;;;;;;;6178847;23;20088;-84
2022/08/17 20:59:04;;;;;;;16.80;4.30;;;;;;;;;;6205690;23;20054;-82
2022/08/17 21:01:39;;;;;;;17.38;4.88;;;;;;;;;;6207533;23;20059;-81
2022/08/17 21:04:37;;;;;;;12.73;4.15;;;;;;;;;;6205393;23;20100;-83
2022/08/17 21:07:24;;;;;;;20.48;4.57;;;;;;;;;;6179497;23;20070;-81
2022/08/17 21:09:50;;;;;;;16.15;4.28;;;;;;;;;;6180328;23;20031;-83
2022/08/17 21:12:35;;;;;;;18.73;4.75;;;;;;;;;;6205185;23;20048;-80
2022/08/17 21:15:06;;;;;;;15.73;4.10;;;;;;;;;;6180683;23;20024;-81
2022/08/17 21:17:51;;;;;;;17.88;4.05;;;;;;;;;;6206447;23;20047;-81
2022/08/17 21:20:35;;;;;;;15.02;3.55;;;;;;;;;;6209164;23;20089;-81
2022/08/17 21:23:19;;;;;;;20.63;4.43;;;;;;;;;;6207327;23;20038;-81
2022/08/17 21:26:07;;;;;;;16.55;4.35;;;;;;;;;;6206851;23;20021;-82
2022/08/17 21:28:51;;;;;;;18.33;5.00;;;;;;;;;;6182013;23;20016;-81
2022/08/17 21:31:29;;;;;;;16.33;4.38;;;;;;;;;;6155471;23;20493;-83
2022/08/17 21:34:31;;;;;;;16.13;4.20;;;;;;;;;;6182328;23;20055;-81
2022/08/17 21:37:16;;;;;;;18.15;5.53;;;;;;;;;;6033296;23;20027;-81
2022/08/17 21:39:46;;;;;;;21.35;4.53;;;;;;;;;;6196428;23;20021;-80
2022/08/17 21:42:22;;;;;;;20.40;4.30;;;;;;;;;;6209241;23;20034;-80
2022/08/17 21:44:48;;;;;;;13.75;5.03;;;;;;;;;;6181023;23;20524;-82
2022/08/17 21:47:19;;;;;;;13.25;5.10;;;;;;;;;;6185065;23;20024;-81
2022/08/17 21:49:45;;;;;;;13.93;4.90;;;;;;;;;;6214431;23;20043;-81
2022/08/17 21:52:16;;;;;;;23.58;5.60;;;;;;;;;;6218158;23;20021;-82
2022/08/17 21:54:50;;;;;;;14.88;4.30;;;;;;;;;;6192877;23;20021;-80
2022/08/17 21:57:19;;;;;;;13.05;4.53;;;;;;;;;;6216289;23;20020;-81
2022/08/17 22:00:02;;;;;;;16.58;4.43;;;;;;;;;;6185143;23;20023;-79
2022/08/17 22:02:31;;;;;;;22.20;5.95;;;;;;;;;;6206897;23;20024;-82
2022/08/17 22:05:14;;;;;;;27.23;7.18;;;;;;;;;;6208755;23;20020;-79
2022/08/17 22:07:44;;;;;;;26.33;6.25;;;;;;;;;;6178941;23;20469;-83
2022/08/17 22:10:32;;;;;;;23.35;6.30;;;;;;;;;;6208970;23;20020;-82
2022/08/17 22:13:07;;;;;;;17.05;6.00;;;;;;;;;;6207540;23;20031;-80
2022/08/17 22:15:37;;;;;;;20.02;6.30;;;;;;;;;;6207274;23;20074;-82
2022/08/17 22:18:18;;;;;;;18.70;6.70;;;;;;;;;;6207398;23;20016;-82
2022/08/17 22:21:00;;;;;;;26.42;7.25;;;;;;;;;;6206385;23;20060;-83
2022/08/17 22:26:23;;;;;;;28.33;6.72;;;;;;;;;;6204572;23;20021;-81
2022/08/17 22:28:59;;;;;;;25.58;6.88;;;;;;;;;;6207260;23;20099;-82
2022/08/17 22:31:27;;;;;;;32.80;7.13;;;;;;;;;;6208034;23;20457;-79
2022/08/17 22:33:59;;;;;;;26.98;8.68;;;;;;;;;;6207075;23;20059;-81
2022/08/17 22:36:27;;;;;;;24.45;6.80;;;;;;;;;;6208165;23;20016;-81
2022/08/17 22:38:57;;;;;;;15.80;5.57;;;;;;;;;;6178994;23;20043;-80
2022/08/17 22:41:23;;;;;;;17.35;7.20;;;;;;;;;;6209578;23;20024;-81
2022/08/17 22:43:50;;;;;;;21.92;7.63;;;;;;;;;;6206317;23;20075;-82
2022/08/17 22:46:18;;;;;;;26.08;7.35;;;;;;;;;;6207982;23;20073;-81
2022/08/17 22:48:49;;;;;;;25.77;7.32;;;;;;;;;;6180237;23;20016;-80
2022/08/17 22:51:18;;;;;;;32.55;8.73;;;;;;;;;;6207651;23;20017;-81
2022/08/17 22:59:32;;;;;;;34.25;8.90;;;;;;;;;;6208353;23;20505;-81
2022/08/17 23:02:13;;;;;;;31.17;9.45;;;;;;;;;;6179315;23;20338;-83
2022/08/17 23:05:05;;;;;;;35.63;9.63;;;;;;;;;;6208098;23;20021;-83
2022/08/17 23:07:31;;;;;;;22.02;8.40;;;;;;;;;;6151252;23;20027;-81
2022/08/17 23:09:58;;;;;;;31.42;8.45;;;;;;;;;;6204669;23;20021;-82
2022/08/17 23:12:26;;;;;;;30.83;8.70;;;;;;;;;;6207766;23;20787;-80
2022/08/17 23:14:57;;;;;;;41.00;10.23;;;;;;;;;;6178991;23;20032;-78
2022/08/17 23:17:23;;;;;;;41.92;10.77;;;;;;;;;;6180956;23;20100;-81
2022/08/17 23:19:49;;;;;;;34.53;9.68;;;;;;;;;;6205841;23;20024;-79
2022/08/17 23:22:15;;;;;;;36.38;10.50;;;;;;;;;;6207804;23;20020;-79
2022/08/17 23:24:43;;;;;;;40.08;10.00;;;;;;;;;;6176719;23;20028;-81
2022/08/17 23:27:10;;;;;;;35.65;10.35;;;;;;;;;;6208438;23;20027;-80
2022/08/17 23:29:40;;;;;;;31.15;10.50;;;;;;;;;;6205063;23;20075;-80
2022/08/17 23:32:08;;;;;;;31.85;9.20;;;;;;;;;;6208482;23;20024;-79
2022/08/17 23:34:36;;;;;;;34.28;8.95;;;;;;;;;;6178832;23;20027;-80
2022/08/17 23:37:06;;;;;;;19.80;7.05;;;;;;;;;;6207185;23;20016;-82
2022/08/17 23:39:32;;;;;;;41.83;9.20;;;;;;;;;;6206210;23;20016;-80
2022/08/17 23:41:59;;;;;;;32.65;9.43;;;;;;;;;;6207199;23;20020;-81
2022/08/17 23:44:26;;;;;;;27.92;8.63;;;;;;;;;;6207478;23;20021;-83
2022/08/17 23:46:52;;;;;;;29.33;8.52;;;;;;;;;;6205854;23;20450;-80
2022/08/17 23:49:19;;;;;;;22.13;8.27;;;;;;;;;;6208269;23;20012;-81